Time,TemperatureF,DewpointF,PressureIn,WindDirection,WindDirectionDegrees,WindSpeedMPH,WindSpeedGustMPH,Humidity,HourlyPrecipIn,Conditions,Clouds,dailyrainin,SoftwareType,DateUTC
2013-01-10 00:03:00,53.4,48.4,29.99,SSW,202,0.0,5.0,83,0.00,,,-99.99,WeatherLink 5.4,2013-01-10 08:03:00,
2013-01-10 00:30:00,53.3,47.0,29.98,SSW,202,2.0,9.0,79,0.00,,,-99.99,WeatherLink 5.4,2013-01-10 08:30:00,
2013-01-10 00:33:00,53.3,47.0,29.98,SSW,202,2.0,9.0,79,0.00,,,-99.99,WeatherLink 5.4,2013-01-10 08:33:00,
2013-01-10 01:00:00,53.5,47.5,29.97,SW,225,1.0,5.0,80,0.00,,,-99.99,WeatherLink 5.4,2013-01-10 09:00:00,
2013-01-10 01:03:00,53.5,47.5,29.97,SW,225,1.0,5.0,80,0.00,,,-99.99,WeatherLink 5.4,2013-01-10 09:03:00,
2013-01-10 01:30:00,53.5,47.5,29.97,SSW,202,0.0,4.0,80,0.00,,,-99.99,WeatherLink 5.4,2013-01-10 09:30:00,
2013-01-10 01:33:00,53.5,47.5,29.97,SSW,202,0.0,4.0,80,0.00,,,-99.99,WeatherLink 5.4,2013-01-10 09:33:00,
2013-01-10 02:00:00,53.4,47.4,29.97,SSW,202,1.0,8.0,80,0.00,,,-99.99,WeatherLink 5.4,2013-01-10 10:00:00,
2013-01-10 02:03:00,53.4,47.4,29.97,SSW,202,1.0,8.0,80,0.00,,,-99.99,WeatherLink 5.4,2013-01-10 10:03:00,
2013-01-10 02:30:00,53.4,47.4,29.97,South,180,2.0,6.0,80,0.00,,,-99.99,WeatherLink 5.4,2013-01-10 10:30:00,
2013-01-10 02:33:00,53.4,47.4,29.97,South,180,2.0,6.0,80,0.00,,,-99.99,WeatherLink 5.4,2013-01-10 10:33:00,
2013-01-10 03:00:00,53.3,47.0,29.96,SSW,202,1.0,5.0,79,0.00,,,-99.99,WeatherLink 5.4,2013-01-10 11:00:00,
2013-01-10 03:03:00,53.3,47.0,29.96,SSW,202,1.0,5.0,79,0.00,,,-99.99,WeatherLink 5.4,2013-01-10 11:03:00,
2013-01-10 03:30:00,53.3,46.6,29.95,SSW,202,0.0,4.0,78,0.00,,,-99.99,WeatherLink 5.4,2013-01-10 11:30:00,
2013-01-10 03:33:00,53.3,46.6,29.95,SSW,202,0.0,4.0,78,0.00,,,-99.99,WeatherLink 5.4,2013-01-10 11:33:00,
2013-01-10 04:00:00,53.3,47.3,29.94,SSW,202,0.0,3.0,80,0.00,,,-99.99,WeatherLink 5.4,2013-01-10 12:00:00,
2013-01-10 04:03:00,53.3,47.3,29.94,SSW,202,0.0,3.0,80,0.00,,,-99.99,WeatherLink 5.4,2013-01-10 12:03:00,
2013-01-10 04:30:00,52.7,48.0,29.94,SW,225,1.0,5.0,84,0.00,,,-99.99,WeatherLink 5.4,2013-01-10 12:30:00,
2013-01-10 04:33:00,52.7,48.0,29.94,SW,225,1.0,5.0,84,0.00,,,-99.99,WeatherLink 5.4,2013-01-10 12:33:00,
2013-01-10 05:00:00,51.8,48.7,29.93,SW,225,0.0,4.0,89,0.00,,,-99.99,WeatherLink 5.4,2013-01-10 13:00:00,
2013-01-10 05:03:00,51.8,48.7,29.93,SW,225,0.0,4.0,89,0.00,,,-99.99,WeatherLink 5.4,2013-01-10 13:03:00,
2013-01-10 05:30:00,51.7,49.2,29.93,North,-999,0.0,0.0,91,0.00,,,-99.99,WeatherLink 5.4,2013-01-10 13:30:00,
2013-01-10 05:33:00,51.7,49.2,29.93,North,-999,0.0,0.0,91,0.00,,,-99.99,WeatherLink 5.4,2013-01-10 13:33:00,
2013-01-10 06:00:00,51.7,49.2,29.93,North,-999,0.0,1.0,91,0.00,,,-99.99,WeatherLink 5.4,2013-01-10 14:00:00,
2013-01-10 06:03:00,51.7,49.2,29.93,North,-999,0.0,1.0,91,0.00,,,-99.99,WeatherLink 5.4,2013-01-10 14:03:00,
2013-01-10 06:30:00,51.6,49.4,29.93,SW,225,0.0,3.0,92,0.00,,,-99.99,WeatherLink 5.4,2013-01-10 14:30:00,
2013-01-10 06:33:00,51.6,49.4,29.93,SW,225,0.0,3.0,92,0.00,,,-99.99,WeatherLink 5.4,2013-01-10 14:33:00,
2013-01-10 07:00:00,51.4,47.7,29.94,West,270,3.0,13.0,87,0.00,,,-99.99,WeatherLink 5.4,2013-01-10 15:00:00,
2013-01-10 07:03:00,51.4,47.7,29.94,West,270,3.0,13.0,87,0.00,,,-99.99,WeatherLink 5.4,2013-01-10 15:03:00,
2013-01-10 07:30:00,50.6,44.3,29.94,West,270,3.0,20.0,79,0.00,,,-99.99,WeatherLink 5.4,2013-01-10 15:30:00,
2013-01-10 07:33:00,50.6,44.3,29.94,West,270,3.0,20.0,79,0.00,,,-99.99,WeatherLink 5.4,2013-01-10 15:33:00,
2013-01-10 08:00:00,50.5,42.9,29.95,WSW,247,4.0,10.0,75,0.00,,,-99.99,WeatherLink 5.4,2013-01-10 16:00:00,
2013-01-10 08:03:00,50.5,42.9,29.95,WSW,247,4.0,10.0,75,0.00,,,-99.99,WeatherLink 5.4,2013-01-10 16:03:00,
2013-01-10 08:30:00,50.7,42.4,29.96,WSW,247,4.0,14.0,73,0.01,,,-99.99,WeatherLink 5.4,2013-01-10 16:30:00,
2013-01-10 08:33:00,50.7,42.4,29.96,WSW,247,4.0,14.0,73,0.01,,,-99.99,WeatherLink 5.4,2013-01-10 16:33:00,
2013-01-10 09:00:00,50.6,42.3,29.97,WSW,247,4.0,12.0,73,0.01,,,-99.99,WeatherLink 5.4,2013-01-10 17:00:00,
2013-01-10 09:03:00,50.6,42.3,29.97,WSW,247,4.0,12.0,73,0.01,,,-99.99,WeatherLink 5.4,2013-01-10 17:03:00,
2013-01-10 09:30:00,50.5,41.4,29.97,WSW,247,2.0,11.0,71,0.00,,,-99.99,WeatherLink 5.4,2013-01-10 17:30:00,
2013-01-10 09:33:00,50.5,41.4,29.97,WSW,247,2.0,11.0,71,0.00,,,-99.99,WeatherLink 5.4,2013-01-10 17:33:00,
2013-01-10 10:00:00,50.4,41.0,29.96,WSW,247,4.0,17.0,70,0.00,,,-99.99,WeatherLink 5.4,2013-01-10 18:00:00,
2013-01-10 10:03:00,50.4,41.0,29.96,WSW,247,4.0,17.0,70,0.00,,,-99.99,WeatherLink 5.4,2013-01-10 18:03:00,
2013-01-10 10:30:00,51.6,41.8,29.95,WSW,247,4.0,14.0,69,0.00,,,-99.99,WeatherLink 5.4,2013-01-10 18:30:00,
2013-01-10 10:33:00,51.6,41.8,29.95,WSW,247,4.0,14.0,69,0.00,,,-99.99,WeatherLink 5.4,2013-01-10 18:33:00,
2013-01-10 11:00:00,52.5,42.6,29.93,WSW,247,3.0,15.0,69,0.00,,,-99.99,WeatherLink 5.4,2013-01-10 19:00:00,
2013-01-10 11:03:00,52.5,42.6,29.93,WSW,247,3.0,15.0,69,0.00,,,-99.99,WeatherLink 5.4,2013-01-10 19:03:00,
2013-01-10 11:30:00,52.9,41.8,29.92,SW,225,6.0,16.0,66,0.00,,,-99.99,WeatherLink 5.4,2013-01-10 19:30:00,
2013-01-10 11:33:00,52.9,41.8,29.92,SW,225,6.0,16.0,66,0.00,,,-99.99,WeatherLink 5.4,2013-01-10 19:33:00,
2013-01-10 12:00:00,52.5,42.6,29.90,SW,225,5.0,17.0,69,0.00,,,-99.99,WeatherLink 5.4,2013-01-10 20:00:00,
2013-01-10 12:03:00,52.5,42.6,29.90,SW,225,5.0,17.0,69,0.00,,,-99.99,WeatherLink 5.4,2013-01-10 20:03:00,
2013-01-10 12:30:00,53.3,41.4,29.89,WSW,247,4.0,16.0,64,0.00,,,-99.99,WeatherLink 5.4,2013-01-10 20:30:00,
2013-01-10 12:33:00,53.3,41.4,29.89,WSW,247,4.0,16.0,64,0.00,,,-99.99,WeatherLink 5.4,2013-01-10 20:33:00,
2013-01-10 13:00:00,55.0,41.8,29.89,West,270,5.0,15.0,61,0.00,,,-99.99,WeatherLink 5.4,2013-01-10 21:00:00,
2013-01-10 13:03:00,55.0,41.8,29.89,West,270,5.0,15.0,61,0.00,,,-99.99,WeatherLink 5.4,2013-01-10 21:03:00,
2013-01-10 13:30:00,56.0,42.7,29.89,West,270,4.0,16.0,61,0.00,,,-99.99,WeatherLink 5.4,2013-01-10 21:30:00,
2013-01-10 13:33:00,56.0,42.7,29.89,West,270,4.0,16.0,61,0.00,,,-99.99,WeatherLink 5.4,2013-01-10 21:33:00,
2013-01-10 14:00:00,56.6,42.4,29.89,West,270,5.0,21.0,59,0.00,,,-99.99,WeatherLink 5.4,2013-01-10 22:00:00,
2013-01-10 14:03:00,56.6,42.4,29.89,West,270,5.0,21.0,59,0.00,,,-99.99,WeatherLink 5.4,2013-01-10 22:03:00,
2013-01-10 14:39:00,55.3,41.6,29.91,West,276,9.0,17.0,60,0.00,,,0.00,Wunderground v.1.15,2013-01-10 22:39:00,
2013-01-10 14:44:00,54.8,41.6,29.91,WSW,257,6.0,6.0,61,0.00,,,0.00,Wunderground v.1.15,2013-01-10 22:44:00,
2013-01-10 14:49:00,54.8,42.0,29.92,SW,230,5.0,15.0,62,0.00,,,0.00,Wunderground v.1.15,2013-01-10 22:49:00,
2013-01-10 14:55:00,55.0,41.8,29.91,WSW,257,5.0,5.0,61,0.00,,,0.00,Wunderground v.1.15,2013-01-10 22:55:00,
2013-01-10 15:05:00,55.0,41.4,29.90,WNW,298,3.0,6.0,60,0.00,,,0.00,Wunderground v.1.15,2013-01-10 23:05:00,
2013-01-10 15:10:00,55.0,41.8,29.90,West,261,4.0,4.0,61,0.00,,,0.00,Wunderground v.1.15,2013-01-10 23:10:00,
2013-01-10 15:19:00,54.9,41.3,29.90,West,271,5.0,5.0,60,0.00,,,0.00,Wunderground v.1.15,2013-01-10 23:19:00,
2013-01-10 15:25:00,54.7,40.6,29.90,West,264,6.0,6.0,59,0.00,,,0.00,Wunderground v.1.15,2013-01-10 23:25:00,
2013-01-10 15:35:00,54.3,40.3,29.90,West,274,4.0,4.0,59,0.00,,,0.00,Wunderground v.1.15,2013-01-10 23:35:00,
2013-01-10 15:40:00,54.4,41.2,29.91,WSW,253,4.0,4.0,61,0.00,,,0.00,Wunderground v.1.15,2013-01-10 23:40:00,
2013-01-10 15:55:00,54.0,40.4,29.90,West,263,4.0,8.0,60,0.00,,,0.00,Wunderground v.1.15,2013-01-10 23:55:00,
2013-01-10 16:05:00,53.6,40.9,29.91,West,260,6.0,6.0,62,0.00,,,0.00,Wunderground v.1.15,2013-01-11 00:05:00,
2013-01-10 16:15:00,53.2,40.1,29.91,WSW,242,2.0,5.0,61,0.00,,,0.00,Wunderground v.1.15,2013-01-11 00:15:00,
2013-01-10 16:25:00,52.9,40.2,29.91,WNW,290,4.0,4.0,62,0.00,,,0.00,Wunderground v.1.15,2013-01-11 00:25:00,
2013-01-10 16:35:00,52.1,40.3,29.91,WNW,299,7.0,7.0,64,0.00,,,0.00,Wunderground v.1.15,2013-01-11 00:35:00,
2013-01-10 16:44:00,51.5,40.1,29.91,WSW,256,4.0,4.0,65,0.00,,,0.00,Wunderground v.1.15,2013-01-11 00:44:00,
2013-01-10 16:50:00,51.2,40.2,29.91,West,276,2.0,2.0,66,0.00,,,0.00,Wunderground v.1.15,2013-01-11 00:50:00,
2013-01-10 16:59:00,50.8,39.5,29.92,WNW,285,4.0,4.0,65,0.00,,,0.00,Wunderground v.1.15,2013-01-11 00:59:00,
2013-01-10 17:05:00,50.7,39.7,29.92,WNW,284,0.0,4.0,66,0.00,,,0.00,Wunderground v.1.15,2013-01-11 01:05:00,
2013-01-10 17:14:00,50.5,39.9,29.92,WNW,298,2.0,2.0,67,0.00,,,0.00,Wunderground v.1.15,2013-01-11 01:14:00,
2013-01-10 17:20:00,50.4,40.2,29.92,West,262,4.0,4.0,68,0.00,,,0.00,Wunderground v.1.15,2013-01-11 01:20:00,
2013-01-10 17:29:00,50.3,40.1,29.91,WNW,284,4.0,4.0,68,0.00,,,0.00,Wunderground v.1.15,2013-01-11 01:29:00,
2013-01-10 17:40:00,50.3,40.1,29.92,West,266,2.0,2.0,68,0.00,,,0.00,Wunderground v.1.15,2013-01-11 01:40:00,
2013-01-10 17:50:00,50.1,39.6,29.92,West,259,4.0,4.0,67,0.00,,,0.00,Wunderground v.1.15,2013-01-11 01:50:00,
2013-01-10 17:59:00,50.0,39.5,29.93,NW,305,7.0,7.0,67,0.00,,,0.00,Wunderground v.1.15,2013-01-11 01:59:00,
2013-01-10 18:05:00,50.0,39.8,29.93,WSW,238,3.0,7.0,68,0.00,,,0.00,Wunderground v.1.15,2013-01-11 02:05:00,
2013-01-10 18:10:00,50.0,40.2,29.93,WNW,303,7.0,7.0,69,0.00,,,0.00,Wunderground v.1.15,2013-01-11 02:10:00,
2013-01-10 18:19:00,50.0,40.2,29.93,West,266,2.0,2.0,69,0.00,,,0.00,Wunderground v.1.15,2013-01-11 02:19:00,
2013-01-10 18:25:00,50.0,40.6,29.93,West,267,2.0,2.0,70,0.00,,,0.00,Wunderground v.1.15,2013-01-11 02:25:00,
2013-01-10 18:34:00,49.7,39.9,29.93,NW,319,8.0,8.0,69,0.00,,,0.00,Wunderground v.1.15,2013-01-11 02:34:00,
2013-01-10 18:40:00,49.7,39.9,29.93,West,277,2.0,2.0,69,0.00,,,0.00,Wunderground v.1.15,2013-01-11 02:40:00,
2013-01-10 18:49:00,49.4,38.9,29.94,WSW,256,4.0,4.0,67,0.00,,,0.00,Wunderground v.1.15,2013-01-11 02:49:00,
2013-01-10 18:55:00,49.4,38.9,29.94,West,265,3.0,4.0,67,0.00,,,0.00,Wunderground v.1.15,2013-01-11 02:55:00,
2013-01-10 19:05:00,49.3,38.4,29.95,South,186,0.0,3.0,66,0.00,,,0.00,Wunderground v.1.15,2013-01-11 03:05:00,
2013-01-10 19:10:00,49.3,38.0,29.95,NW,310,4.0,4.0,65,0.00,,,0.00,Wunderground v.1.15,2013-01-11 03:10:00,
2013-01-10 19:19:00,48.9,36.4,29.95,WNW,300,2.0,2.0,62,0.00,,,0.00,Wunderground v.1.15,2013-01-11 03:19:00,
2013-01-10 19:24:00,48.7,35.0,29.95,NW,311,1.0,2.0,59,0.00,,,0.00,Wunderground v.1.15,2013-01-11 03:24:00,
2013-01-10 19:30:00,48.5,33.9,29.96,WNW,285,0.0,0.0,57,0.00,,,0.00,Wunderground v.1.15,2013-01-11 03:30:00,
2013-01-10 19:35:00,48.3,33.8,29.96,NW,323,5.0,5.0,57,0.00,,,0.00,Wunderground v.1.15,2013-01-11 03:35:00,
2013-01-10 19:45:00,47.9,32.0,29.97,WNW,299,3.0,3.0,54,0.00,,,0.00,Wunderground v.1.15,2013-01-11 03:45:00,
2013-01-10 19:54:00,47.5,31.2,29.97,WNW,285,5.0,5.0,53,0.00,,,0.00,Wunderground v.1.15,2013-01-11 03:54:00,
2013-01-10 20:00:00,47.5,31.2,29.97,NW,310,4.0,4.0,53,0.00,,,0.00,Wunderground v.1.15,2013-01-11 04:00:00,
2013-01-10 20:05:00,47.4,30.6,29.98,WNW,286,0.0,4.0,52,0.00,,,0.00,Wunderground v.1.15,2013-01-11 04:05:00,
2013-01-10 20:14:00,47.3,30.1,29.98,WSW,253,1.0,1.0,51,0.00,,,0.00,Wunderground v.1.15,2013-01-11 04:14:00,
2013-01-10 20:20:00,47.3,30.5,29.98,NW,314,3.0,3.0,52,0.00,,,0.00,Wunderground v.1.15,2013-01-11 04:20:00,
2013-01-10 20:30:00,47.0,30.3,29.99,WNW,293,4.0,4.0,52,0.00,,,0.00,Wunderground v.1.15,2013-01-11 04:30:00,
2013-01-10 20:39:00,46.9,29.7,29.99,West,278,1.0,1.0,51,0.00,,,0.00,Wunderground v.1.15,2013-01-11 04:39:00,
2013-01-10 20:45:00,46.7,29.5,29.99,West,259,2.0,2.0,51,0.00,,,0.00,Wunderground v.1.15,2013-01-11 04:45:00,
2013-01-10 20:55:00,46.6,29.4,30.00,West,259,1.0,1.0,51,0.00,,,0.00,Wunderground v.1.15,2013-01-11 04:55:00,
2013-01-10 21:05:00,46.8,28.6,30.00,West,269,0.0,1.0,49,0.00,,,0.00,Wunderground v.1.15,2013-01-11 05:05:00,
2013-01-10 21:09:00,46.9,28.2,30.00,NNW,330,1.0,1.0,48,0.00,,,0.00,Wunderground v.1.15,2013-01-11 05:09:00,
2013-01-10 21:15:00,46.8,28.6,30.01,NW,321,5.0,5.0,49,0.00,,,0.00,Wunderground v.1.15,2013-01-11 05:15:00,
2013-01-10 21:25:00,46.6,28.9,30.01,WNW,301,3.0,3.0,50,0.00,,,0.00,Wunderground v.1.15,2013-01-11 05:25:00,
2013-01-10 21:34:00,46.3,29.1,30.02,NNW,332,4.0,4.0,51,0.00,,,0.00,Wunderground v.1.15,2013-01-11 05:34:00,
2013-01-10 21:40:00,46.1,29.4,30.02,WNW,295,0.0,0.0,52,0.00,,,0.00,Wunderground v.1.15,2013-01-11 05:40:00,
2013-01-10 21:50:00,45.8,29.2,30.03,West,277,2.0,2.0,52,0.00,,,0.00,Wunderground v.1.15,2013-01-11 05:50:00,
2013-01-10 22:00:00,45.8,29.6,30.03,WNW,294,3.0,3.0,53,0.00,,,0.00,Wunderground v.1.15,2013-01-11 06:00:00,
2013-01-10 22:05:00,45.8,29.6,30.03,WNW,291,3.0,3.0,53,0.00,,,0.00,Wunderground v.1.15,2013-01-11 06:05:00,
2013-01-10 22:14:00,45.6,29.4,30.03,NW,308,5.0,5.0,53,0.00,,,0.00,Wunderground v.1.15,2013-01-11 06:14:00,
2013-01-10 22:20:00,45.7,29.5,30.03,WNW,287,2.0,2.0,53,0.00,,,0.00,Wunderground v.1.15,2013-01-11 06:20:00,
2013-01-10 22:30:00,45.9,29.2,30.04,WSW,241,3.0,3.0,52,0.00,,,0.00,Wunderground v.1.15,2013-01-11 06:30:00,
2013-01-10 22:39:00,46.0,29.3,30.04,West,273,1.0,1.0,52,0.00,,,0.00,Wunderground v.1.15,2013-01-11 06:39:00,
2013-01-10 22:45:00,45.9,29.2,30.04,West,278,3.0,3.0,52,0.00,,,0.00,Wunderground v.1.15,2013-01-11 06:45:00,
2013-01-10 22:55:00,45.8,29.6,30.04,West,270,2.0,2.0,53,0.00,,,0.00,Wunderground v.1.15,2013-01-11 06:55:00,
2013-01-10 23:05:00,45.7,29.5,30.05,West,263,0.0,1.0,53,0.00,,,0.00,Wunderground v.1.15,2013-01-11 07:05:00,
2013-01-10 23:14:00,45.7,29.5,30.05,West,271,2.0,7.0,53,0.00,,,0.00,Wunderground v.1.15,2013-01-11 07:14:00,
2013-01-10 23:20:00,45.7,29.5,30.05,WNW,301,5.0,5.0,53,0.00,,,0.00,Wunderground v.1.15,2013-01-11 07:20:00,
2013-01-10 23:29:00,45.6,29.4,30.05,West,266,3.0,3.0,53,0.00,,,0.00,Wunderground v.1.15,2013-01-11 07:29:00,
2013-01-10 23:34:00,45.5,29.3,30.06,West,279,2.0,3.0,53,0.00,,,0.00,Wunderground v.1.15,2013-01-11 07:34:00,
2013-01-10 23:40:00,45.4,29.3,30.05,West,268,4.0,4.0,53,0.00,,,0.00,Wunderground v.1.15,2013-01-11 07:40:00,
2013-01-10 23:49:00,45.5,29.8,30.05,WSW,239,2.0,2.0,54,0.00,,,0.00,Wunderground v.1.15,2013-01-11 07:49:00,
2013-01-10 23:55:00,45.6,29.9,30.05,WSW,255,1.0,2.0,54,0.00,,,0.00,Wunderground v.1.15,2013-01-11 07:55:00,